Hegina — 3ETX2 — position and weather

sailwx.info

Track history (hours):
 
Tides and Currents Weather Stations Pressure Air Temp Water Temp Dewpoint Dewpoint Depression Visibility Wind Speed Wind Dir Waves Ship Positions

Hegina

Last reported at 2014-Dec-21 01:32 UTC. Time now 2014-Dec-21 01:53 UTC.
Position N 53°45' W 000°16'.

Length 138 m; draft 7.7 m.

Type: Cargo ship. MMSI: 372427000.

Date/timePositionNaut miles runAvg speedWind from/ knotsBaromVisibWave heightAir tempDewpointWater temp
2014-Dec-21 01:32N 53°45' W 000°16'0 0.0
2014-Dec-21 00:32N 53°45' W 000°16'0 0.0
2014-Dec-20 23:32N 53°45' W 000°16'0 0.0
2014-Dec-20 22:32N 53°45' W 000°16'0 0.0
2014-Dec-20 21:29N 53°45' W 000°16'0 0.0
2014-Dec-20 20:32N 53°45' W 000°16'0 0.0
2014-Dec-20 19:29N 53°45' W 000°16'0 0.0
2014-Dec-20 18:32N 53°45' W 000°16'0 0.0
2014-Dec-20 17:32N 53°45' W 000°16'0 0.0
2014-Dec-20 16:32N 53°45' W 000°16'0 0.0
2014-Dec-20 15:26N 53°45' W 000°16'0 0.0
2014-Dec-20 14:32N 53°45' W 000°16'0 0.0
2014-Dec-20 13:32N 53°45' W 000°16'0 0.0
2014-Dec-20 12:32N 53°45' W 000°16'0 0.0
2014-Dec-20 11:32N 53°45' W 000°16'0 0.0
2014-Dec-20 10:32N 53°45' W 000°16'0 0.0
2014-Dec-20 09:32N 53°45' W 000°16'0 0.0
2014-Dec-20 08:23N 53°45' W 000°16'0 0.0
2014-Dec-20 07:32N 53°45' W 000°16'0 0.0
2014-Dec-20 06:32N 53°45' W 000°16'0 0.0
2014-Dec-20 05:32N 53°45' W 000°16'0 0.0
2014-Dec-20 04:32N 53°45' W 000°16'0 0.0
2014-Dec-20 03:32N 53°45' W 000°16'0 0.0
2014-Dec-20 02:32N 53°45' W 000°16'0 0.0
2014-Dec-20 01:29N 53°45' W 000°16'0 0.0
2014-Dec-20 00:29N 53°45' W 000°16'0 0.0
2014-Dec-19 23:32N 53°45' W 000°16'0 0.0
2014-Dec-19 22:32N 53°45' W 000°16'0 0.0
2014-Dec-19 21:32N 53°45' W 000°16'0 0.0
2014-Dec-19 20:32N 53°45' W 000°16'0 0.0
2014-Dec-19 19:29N 53°45' W 000°16'0 0.0
2014-Dec-19 18:29N 53°45' W 000°16'0 0.0
2014-Dec-19 17:32N 53°45' W 000°16'0 0.0
2014-Dec-19 16:32N 53°45' W 000°16'0 0.0
2014-Dec-19 15:29N 53°45' W 000°16'0 0.0
2014-Dec-19 14:32N 53°45' W 000°16'0 0.0
2014-Dec-19 13:32N 53°45' W 000°16'0 0.0
2014-Dec-19 12:32N 53°45' W 000°16'0 0.0
2014-Dec-19 11:32N 53°45' W 000°16'0 0.0
2014-Dec-19 10:32N 53°45' W 000°16'0 0.0
2014-Dec-19 09:32N 53°45' W 000°16'0 0.0
2014-Dec-19 08:32N 53°45' W 000°16'0 0.0
2014-Dec-19 07:32N 53°45' W 000°16'0 0.0
2014-Dec-19 06:32N 53°45' W 000°16'0 0.0
2014-Dec-19 05:32N 53°45' W 000°16'0 0.0
2014-Dec-19 04:32N 53°45' W 000°16'0 0.0
2014-Dec-19 03:29N 53°45' W 000°16'0 0.0
2014-Dec-19 02:32N 53°45' W 000°16'0 0.0
2014-Dec-19 01:32N 53°45' W 000°16'0 0.0
2014-Dec-19 00:32N 53°45' W 000°16'0 0.0
2014-Dec-18 23:32N 53°45' W 000°16'0 0.0
2014-Dec-18 22:32N 53°45' W 000°16'0 0.0
2014-Dec-18 21:32N 53°45' W 000°16'0 0.0
2014-Dec-18 20:32N 53°45' W 000°16'0 0.0
2014-Dec-18 19:32N 53°45' W 000°16'0 0.0
2014-Dec-18 18:29N 53°45' W 000°16'0 0.0
2014-Dec-18 17:29N 53°45' W 000°16'0 0.0
2014-Dec-18 16:32N 53°45' W 000°16'0 0.0
2014-Dec-18 15:33N 53°45' W 000°16'0 0.5
2014-Dec-18 14:33N 53°44' W 000°17'7 7.1
2014-Dec-18 13:33N 53°38' W 000°11'1110.5
2014-Dec-18 12:33N 53°34' E 000°06'7 6.9
2014-Dec-18 11:33N 53°35' E 000°18'6 6.1
2014-Dec-18 10:33N 53°37' E 000°27'1 0.7
2014-Dec-18 09:31N 53°36' E 000°28'0 0.0
2014-Dec-18 08:28N 53°36' E 000°28'0 0.0
2014-Dec-18 07:31N 53°36' E 000°28'0 0.0
2014-Dec-18 06:25N 53°36' E 000°28'0 0.0
2014-Dec-18 05:28N 53°36' E 000°28'0 0.1
2014-Dec-18 04:25N 53°36' E 000°29'0 0.1
2014-Dec-18 03:31N 53°36' E 000°28'0 0.1
2014-Dec-18 02:31N 53°36' E 000°28'0 0.0
2014-Dec-18 01:28N 53°36' E 000°28'0 0.0
2014-Dec-18 00:31N 53°36' E 000°28'0 0.1
2014-Dec-17 23:31N 53°36' E 000°28'0 0.1
2014-Dec-17 22:28N 53°36' E 000°29'0 0.1
2014-Dec-17 21:31N 53°36' E 000°28'0 0.0
2014-Dec-17 20:31N 53°36' E 000°28'0 0.0
2014-Dec-17 19:28N 53°36' E 000°28'0 0.0
2014-Dec-17 18:28N 53°36' E 000°28'0 0.1
2014-Dec-17 17:31N 53°36' E 000°28'0 0.1
2014-Dec-17 16:31N 53°36' E 000°29'0 0.1
2014-Dec-17 15:25N 53°36' E 000°29'0 0.1
2014-Dec-17 14:25N 53°36' E 000°28'0 0.0
2014-Dec-17 13:31N 53°36' E 000°28'0 0.0
2014-Dec-17 12:31N 53°36' E 000°28'0 0.0
2014-Dec-17 11:28N 53°36' E 000°28'0 0.1
2014-Dec-17 10:28N 53°36' E 000°29'0 0.1
2014-Dec-17 09:22N 53°36' E 000°29'0 0.1
2014-Dec-17 08:31N 53°36' E 000°29'0 0.1
2014-Dec-17 07:31N 53°36' E 000°28'0 0.0
2014-Dec-17 06:31N 53°36' E 000°28'0 0.0
2014-Dec-17 05:25N 53°36' E 000°28'0 0.0
2014-Dec-17 04:31N 53°36' E 000°28'0 0.0
2014-Dec-17 03:31N 53°36' E 000°28'0 0.0
2014-Dec-17 02:34N 53°36' E 000°28'0 0.0
2014-Dec-17 01:31N 53°36' E 000°28'0 0.1
2014-Dec-17 00:28N 53°36' E 000°29'0 0.1
2014-Dec-16 23:22N 53°36' E 000°29'0 0.0
2014-Dec-16 22:31N 53°36' E 000°29'0 0.0
2014-Dec-16 21:34N 53°36' E 000°29'0 0.1
2014-Dec-16 20:34N 53°36' E 000°28'0 0.0
2014-Dec-16 19:25N 53°36' E 000°28'0 0.0
2014-Dec-16 18:28N 53°36' E 000°28'0 0.0
2014-Dec-16 17:31N 53°36' E 000°28'0 0.1
2014-Dec-16 16:34N 53°36' E 000°28'0 0.1
2014-Dec-16 15:31N 53°36' E 000°29'0 0.0
2014-Dec-16 14:28N 53°36' E 000°29'0 0.0
2014-Dec-16 13:34N 53°36' E 000°29'0 0.0
2014-Dec-16 12:34N 53°36' E 000°28'0 0.0
2014-Dec-16 11:31N 53°36' E 000°28'0 0.0
2014-Dec-16 10:34N 53°36' E 000°28'0 0.0
2014-Dec-16 09:31N 53°36' E 000°28'0 0.1
2014-Dec-16 08:19N 53°36' E 000°29'0 0.1
2014-Dec-16 07:31N 53°36' E 000°29'0 0.1
2014-Dec-16 06:28N 53°36' E 000°28'0 0.0
2014-Dec-16 05:31N 53°36' E 000°28'0 0.0
2014-Dec-16 04:28N 53°36' E 000°28'0 0.0
2014-Dec-15 23:28N 53°36' E 000°28'0 0.0
2014-Dec-15 22:28N 53°36' E 000°28'0 0.0
2014-Dec-15 21:30N 53°36' E 000°28'0 0.0
2014-Dec-15 20:33N 53°36' E 000°28'0 0.0
2014-Dec-15 19:30N 53°36' E 000°29'0 0.1
2014-Dec-15 18:30N 53°36' E 000°28'0 0.0
2014-Dec-15 17:30N 53°36' E 000°28'2 2.4
2014-Dec-15 16:34N 53°38' E 000°30'1110.5
2014-Dec-15 15:33N 53°45' E 000°45'320 8.1
2014-Dec-14 00:17N 57°02' E 008°07'1110.7
2014-Dec-13 23:17N 57°10' E 008°20'7910.2
2014-Dec-13 15:32N 57°49' E 010°28'8 7.7
2014-Dec-13 14:28N 57°48' E 010°44'8 1.3
2014-Dec-13 08:20N 57°40' E 010°39'6 5.5
2014-Dec-13 07:16N 57°39' E 010°50'6 6.4
2014-Dec-13 06:24N 57°38' E 011°01'7 8.5
2014-Dec-13 05:33N 57°35' E 011°12'10 9.6
2014-Dec-13 04:34N 57°29' E 011°26'9 9.4
2014-Dec-13 03:33N 57°20' E 011°32'10 9.7
2014-Dec-13 02:34N 57°11' E 011°38'9 8.9
2014-Dec-13 01:33N 57°02' E 011°43'8 8.2
2014-Dec-13 00:33N 56°55' E 011°48'8 8.5
2014-Dec-12 23:33N 56°46' E 011°53'9 8.8
2014-Dec-12 22:33N 56°38' E 011°47'127 9.8
2014-Dec-12 09:33N 54°32' E 011°26'1211.9
2014-Dec-12 08:33N 54°27' E 011°44'1312.2
2014-Dec-12 07:30N 54°27' E 012°06'7510.8
2014-Dec-12 00:33N 55°03' E 014°00'1110.9
2014-Dec-11 23:33N 55°11' E 014°14'1111.4
2014-Dec-11 22:33N 55°19' E 014°26'1211.5
2014-Dec-11 21:33N 55°28' E 014°40'1211.6
2014-Dec-11 20:33N 55°33' E 014°58'1211.8
2014-Dec-11 19:32N 55°40' E 015°16'  
Track history (hours):
 
Tides and Currents Weather Stations Pressure Air Temp Water Temp Dewpoint Dewpoint Depression Visibility Wind Speed Wind Dir Waves Ship Positions

Hegina

Last reported at 2014-Dec-21 01:32 UTC. Time now 2014-Dec-21 01:53 UTC.
Position N 53°45' W 000°16'.

Length 138 m; draft 7.7 m.

Type: Cargo ship. MMSI: 372427000.

Date/timePositionNaut miles runAvg speedWind from/ knotsBaromVisibWave heightAir tempDewpointWater temp
2014-Dec-21 01:32N 53°45' W 000°16'0 0.0
2014-Dec-21 00:32N 53°45' W 000°16'0 0.0
2014-Dec-20 23:32N 53°45' W 000°16'0 0.0
2014-Dec-20 22:32N 53°45' W 000°16'0 0.0
2014-Dec-20 21:29N 53°45' W 000°16'0 0.0
2014-Dec-20 20:32N 53°45' W 000°16'0 0.0
2014-Dec-20 19:29N 53°45' W 000°16'0 0.0
2014-Dec-20 18:32N 53°45' W 000°16'0 0.0
2014-Dec-20 17:32N 53°45' W 000°16'0 0.0
2014-Dec-20 16:32N 53°45' W 000°16'0 0.0
2014-Dec-20 15:26N 53°45' W 000°16'0 0.0
2014-Dec-20 14:32N 53°45' W 000°16'0 0.0
2014-Dec-20 13:32N 53°45' W 000°16'0 0.0
2014-Dec-20 12:32N 53°45' W 000°16'0 0.0
2014-Dec-20 11:32N 53°45' W 000°16'0 0.0
2014-Dec-20 10:32N 53°45' W 000°16'0 0.0
2014-Dec-20 09:32N 53°45' W 000°16'0 0.0
2014-Dec-20 08:23N 53°45' W 000°16'0 0.0
2014-Dec-20 07:32N 53°45' W 000°16'0 0.0
2014-Dec-20 06:32N 53°45' W 000°16'0 0.0
2014-Dec-20 05:32N 53°45' W 000°16'0 0.0
2014-Dec-20 04:32N 53°45' W 000°16'0 0.0
2014-Dec-20 03:32N 53°45' W 000°16'0 0.0
2014-Dec-20 02:32N 53°45' W 000°16'0 0.0
2014-Dec-20 01:29N 53°45' W 000°16'0 0.0
2014-Dec-20 00:29N 53°45' W 000°16'0 0.0
2014-Dec-19 23:32N 53°45' W 000°16'0 0.0
2014-Dec-19 22:32N 53°45' W 000°16'0 0.0
2014-Dec-19 21:32N 53°45' W 000°16'0 0.0
2014-Dec-19 20:32N 53°45' W 000°16'0 0.0
2014-Dec-19 19:29N 53°45' W 000°16'0 0.0
2014-Dec-19 18:29N 53°45' W 000°16'0 0.0
2014-Dec-19 17:32N 53°45' W 000°16'0 0.0
2014-Dec-19 16:32N 53°45' W 000°16'0 0.0
2014-Dec-19 15:29N 53°45' W 000°16'0 0.0
2014-Dec-19 14:32N 53°45' W 000°16'0 0.0
2014-Dec-19 13:32N 53°45' W 000°16'0 0.0
2014-Dec-19 12:32N 53°45' W 000°16'0 0.0
2014-Dec-19 11:32N 53°45' W 000°16'0 0.0
2014-Dec-19 10:32N 53°45' W 000°16'0 0.0
2014-Dec-19 09:32N 53°45' W 000°16'0 0.0
2014-Dec-19 08:32N 53°45' W 000°16'0 0.0
2014-Dec-19 07:32N 53°45' W 000°16'0 0.0
2014-Dec-19 06:32N 53°45' W 000°16'0 0.0
2014-Dec-19 05:32N 53°45' W 000°16'0 0.0
2014-Dec-19 04:32N 53°45' W 000°16'0 0.0
2014-Dec-19 03:29N 53°45' W 000°16'0 0.0
2014-Dec-19 02:32N 53°45' W 000°16'0 0.0
2014-Dec-19 01:32N 53°45' W 000°16'0 0.0
2014-Dec-19 00:32N 53°45' W 000°16'0 0.0
2014-Dec-18 23:32N 53°45' W 000°16'0 0.0
2014-Dec-18 22:32N 53°45' W 000°16'0 0.0
2014-Dec-18 21:32N 53°45' W 000°16'0 0.0
2014-Dec-18 20:32N 53°45' W 000°16'0 0.0
2014-Dec-18 19:32N 53°45' W 000°16'0 0.0
2014-Dec-18 18:29N 53°45' W 000°16'0 0.0
2014-Dec-18 17:29N 53°45' W 000°16'0 0.0
2014-Dec-18 16:32N 53°45' W 000°16'0 0.0
2014-Dec-18 15:33N 53°45' W 000°16'0 0.5
2014-Dec-18 14:33N 53°44' W 000°17'7 7.1
2014-Dec-18 13:33N 53°38' W 000°11'1110.5
2014-Dec-18 12:33N 53°34' E 000°06'7 6.9
2014-Dec-18 11:33N 53°35' E 000°18'6 6.1
2014-Dec-18 10:33N 53°37' E 000°27'1 0.7
2014-Dec-18 09:31N 53°36' E 000°28'0 0.0
2014-Dec-18 08:28N 53°36' E 000°28'0 0.0
2014-Dec-18 07:31N 53°36' E 000°28'0 0.0
2014-Dec-18 06:25N 53°36' E 000°28'0 0.0
2014-Dec-18 05:28N 53°36' E 000°28'0 0.1
2014-Dec-18 04:25N 53°36' E 000°29'0 0.1
2014-Dec-18 03:31N 53°36' E 000°28'0 0.1
2014-Dec-18 02:31N 53°36' E 000°28'0 0.0
2014-Dec-18 01:28N 53°36' E 000°28'0 0.0
2014-Dec-18 00:31N 53°36' E 000°28'0 0.1
2014-Dec-17 23:31N 53°36' E 000°28'0 0.1
2014-Dec-17 22:28N 53°36' E 000°29'0 0.1
2014-Dec-17 21:31N 53°36' E 000°28'0 0.0
2014-Dec-17 20:31N 53°36' E 000°28'0 0.0
2014-Dec-17 19:28N 53°36' E 000°28'0 0.0
2014-Dec-17 18:28N 53°36' E 000°28'0 0.1
2014-Dec-17 17:31N 53°36' E 000°28'0 0.1
2014-Dec-17 16:31N 53°36' E 000°29'0 0.1
2014-Dec-17 15:25N 53°36' E 000°29'0 0.1
2014-Dec-17 14:25N 53°36' E 000°28'0 0.0
2014-Dec-17 13:31N 53°36' E 000°28'0 0.0
2014-Dec-17 12:31N 53°36' E 000°28'0 0.0
2014-Dec-17 11:28N 53°36' E 000°28'0 0.1
2014-Dec-17 10:28N 53°36' E 000°29'0 0.1
2014-Dec-17 09:22N 53°36' E 000°29'0 0.1
2014-Dec-17 08:31N 53°36' E 000°29'0 0.1
2014-Dec-17 07:31N 53°36' E 000°28'0 0.0
2014-Dec-17 06:31N 53°36' E 000°28'0 0.0
2014-Dec-17 05:25N 53°36' E 000°28'0 0.0
2014-Dec-17 04:31N 53°36' E 000°28'0 0.0
2014-Dec-17 03:31N 53°36' E 000°28'0 0.0
2014-Dec-17 02:34N 53°36' E 000°28'0 0.0
2014-Dec-17 01:31N 53°36' E 000°28'0 0.1
2014-Dec-17 00:28N 53°36' E 000°29'0 0.1
2014-Dec-16 23:22N 53°36' E 000°29'0 0.0
2014-Dec-16 22:31N 53°36' E 000°29'0 0.0
2014-Dec-16 21:34N 53°36' E 000°29'0 0.1
2014-Dec-16 20:34N 53°36' E 000°28'0 0.0
2014-Dec-16 19:25N 53°36' E 000°28'0 0.0
2014-Dec-16 18:28N 53°36' E 000°28'0 0.0
2014-Dec-16 17:31N 53°36' E 000°28'0 0.1
2014-Dec-16 16:34N 53°36' E 000°28'0 0.1
2014-Dec-16 15:31N 53°36' E 000°29'0 0.0
2014-Dec-16 14:28N 53°36' E 000°29'0 0.0
2014-Dec-16 13:34N 53°36' E 000°29'0 0.0
2014-Dec-16 12:34N 53°36' E 000°28'0 0.0
2014-Dec-16 11:31N 53°36' E 000°28'0 0.0
2014-Dec-16 10:34N 53°36' E 000°28'0 0.0
2014-Dec-16 09:31N 53°36' E 000°28'0 0.1
2014-Dec-16 08:19N 53°36' E 000°29'0 0.1
2014-Dec-16 07:31N 53°36' E 000°29'0 0.1
2014-Dec-16 06:28N 53°36' E 000°28'0 0.0
2014-Dec-16 05:31N 53°36' E 000°28'0 0.0
2014-Dec-16 04:28N 53°36' E 000°28'0 0.0
2014-Dec-15 23:28N 53°36' E 000°28'0 0.0
2014-Dec-15 22:28N 53°36' E 000°28'0 0.0
2014-Dec-15 21:30N 53°36' E 000°28'0 0.0
2014-Dec-15 20:33N 53°36' E 000°28'0 0.0
2014-Dec-15 19:30N 53°36' E 000°29'0 0.1
2014-Dec-15 18:30N 53°36' E 000°28'0 0.0
2014-Dec-15 17:30N 53°36' E 000°28'2 2.4
2014-Dec-15 16:34N 53°38' E 000°30'1110.5
2014-Dec-15 15:33N 53°45' E 000°45'320 8.1
2014-Dec-14 00:17N 57°02' E 008°07'1110.7
2014-Dec-13 23:17N 57°10' E 008°20'7910.2
2014-Dec-13 15:32N 57°49' E 010°28'8 7.7
2014-Dec-13 14:28N 57°48' E 010°44'8 1.3
2014-Dec-13 08:20N 57°40' E 010°39'6 5.5
2014-Dec-13 07:16N 57°39' E 010°50'6 6.4
2014-Dec-13 06:24N 57°38' E 011°01'7 8.5
2014-Dec-13 05:33N 57°35' E 011°12'10 9.6
2014-Dec-13 04:34N 57°29' E 011°26'9 9.4
2014-Dec-13 03:33N 57°20' E 011°32'10 9.7
2014-Dec-13 02:34N 57°11' E 011°38'9 8.9
2014-Dec-13 01:33N 57°02' E 011°43'8 8.2
2014-Dec-13 00:33N 56°55' E 011°48'8 8.5
2014-Dec-12 23:33N 56°46' E 011°53'9 8.8
2014-Dec-12 22:33N 56°38' E 011°47'127 9.8
2014-Dec-12 09:33N 54°32' E 011°26'1211.9
2014-Dec-12 08:33N 54°27' E 011°44'1312.2
2014-Dec-12 07:30N 54°27' E 012°06'7510.8
2014-Dec-12 00:33N 55°03' E 014°00'1110.9
2014-Dec-11 23:33N 55°11' E 014°14'1111.4
2014-Dec-11 22:33N 55°19' E 014°26'1211.5
2014-Dec-11 21:33N 55°28' E 014°40'1211.6
2014-Dec-11 20:33N 55°33' E 014°58'1211.8
2014-Dec-11 19:32N 55°40' E 015°16'  

Dump ship's entire track history